This is the latest recevied weather packets stored in our database for station/object M0TJX-1. If no packets are shown the sender has not sent any weather packets the latest 10 day(s).
| Time | Temp. | Humidity | Pressure | Rain* | Wind** | Luminosity | Snow |
|---|---|---|---|---|---|---|---|
| 1787845222 | 25° C | 57% | 1007.1 hPa | 0 mm | - | - | - |
| 1787844322 | 24.44° C | 58% | 1006.9 hPa | 0 mm | - | - | - |
| 1787843422 | 24.44° C | 59% | 1006.7 hPa | 0 mm | - | - | - |
| 1787842522 | 23.89° C | 60% | 1006.6 hPa | 0 mm | - | - | - |
| 1787841622 | 23.89° C | 60% | 1006.6 hPa | 0 mm | - | - | - |
| 1787840723 | 23.89° C | 63% | 1006.5 hPa | 0 mm | - | - | - |
| 1787839822 | 24.44° C | 65% | 1006.6 hPa | 0 mm | - | - | - |
| 1787838923 | 24.44° C | 71% | 1006.6 hPa | 0 mm | - | - | - |
| 1787838022 | 23.89° C | 73% | 1006.5 hPa | 0 mm | - | - | - |
| 1787837123 | 25° C | 65% | 1006.4 hPa | 0 mm | - | - | - |
| 1787836223 | 25° C | 67% | 1006.2 hPa | 0 mm | - | - | - |
| 1787835323 | 24.44° C | 69% | 1006.7 hPa | 0 mm | - | - | - |
| 1787834423 | 25° C | 71% | 1006.7 hPa | 0 mm | - | - | - |
| 1787833523 | 25° C | 70% | 1006.7 hPa | 0 mm | - | - | - |
| 1787832623 | 24.44° C | 74% | 1006.6 hPa | 0 mm | - | - | - |
| 1787831723 | 23.33° C | 79% | 1006.6 hPa | 0 mm | - | - | - |
| 1787830823 | 22.22° C | 83% | 1006.9 hPa | 0 mm | - | - | - |
| 1787829923 | 21.11° C | 85% | 1007 hPa | 0 mm | - | - | - |
| 1787829023 | 21.11° C | 87% | 1007.1 hPa | 0 mm | - | - | - |
| 1787828123 | 20.56° C | 91% | 1007 hPa | 0 mm | - | - | - |
| 1787827223 | 20.56° C | 93% | 1007.1 hPa | 0 mm | - | - | - |
| 1787826323 | 20° C | 93% | 1007.1 hPa | 0 mm | - | - | - |
| 1787825423 | 20° C | 93% | 1007.1 hPa | 0 mm | - | - | - |
| 1787824523 | 20° C | 94% | 1007 hPa | 0 mm | - | - | - |
| 1787823623 | 20° C | 95% | 1007.1 hPa | 0 mm | - | - | - |
* Rain latest hour (hover to see other rain measurements)
** Current wind speed in m/s (hover to see current wind gust speed)